sensor_id;sensor_type;location;lat;lon;timestamp;P1;durP1;ratioP1;P2;durP2;ratioP2
1715;SDS011;855;48.824;9.220;2024-01-07T00:00:39;31.43;;;10.40;;
1715;SDS011;855;48.824;9.220;2024-01-07T00:03:06;25.20;;;9.40;;
1715;SDS011;855;48.824;9.220;2024-01-07T00:05:32;37.50;;;9.53;;
1715;SDS011;855;48.824;9.220;2024-01-07T00:08:03;30.80;;;11.70;;
1715;SDS011;855;48.824;9.220;2024-01-07T00:10:30;28.83;;;10.80;;
1715;SDS011;855;48.824;9.220;2024-01-07T00:12:57;25.73;;;10.00;;
1715;SDS011;855;48.824;9.220;2024-01-07T00:15:24;27.30;;;9.60;;
1715;SDS011;855;48.824;9.220;2024-01-07T00:17:52;22.60;;;9.83;;
1715;SDS011;855;48.824;9.220;2024-01-07T00:20:18;32.17;;;11.10;;
1715;SDS011;855;48.824;9.220;2024-01-07T00:22:45;23.10;;;8.63;;
1715;SDS011;855;48.824;9.220;2024-01-07T00:25:13;25.63;;;9.23;;
1715;SDS011;855;48.824;9.220;2024-01-07T00:27:40;25.33;;;8.30;;
1715;SDS011;855;48.824;9.220;2024-01-07T00:30:07;25.67;;;9.93;;
1715;SDS011;855;48.824;9.220;2024-01-07T00:32:34;37.17;;;10.40;;
1715;SDS011;855;48.824;9.220;2024-01-07T00:35:02;31.27;;;9.80;;
1715;SDS011;855;48.824;9.220;2024-01-07T00:37:29;26.23;;;10.77;;
1715;SDS011;855;48.824;9.220;2024-01-07T00:39:55;24.23;;;9.50;;
1715;SDS011;855;48.824;9.220;2024-01-07T00:42:24;29.33;;;10.00;;
1715;SDS011;855;48.824;9.220;2024-01-07T00:44:50;26.63;;;10.03;;
1715;SDS011;855;48.824;9.220;2024-01-07T00:47:17;29.27;;;10.47;;
1715;SDS011;855;48.824;9.220;2024-01-07T00:49:44;22.87;;;9.50;;
1715;SDS011;855;48.824;9.220;2024-01-07T00:52:11;28.07;;;9.83;;
1715;SDS011;855;48.824;9.220;2024-01-07T00:54:39;19.27;;;8.33;;
1715;SDS011;855;48.824;9.220;2024-01-07T00:57:05;35.13;;;9.53;;
1715;SDS011;855;48.824;9.220;2024-01-07T00:59:34;19.80;;;8.30;;
1715;SDS011;855;48.824;9.220;2024-01-07T01:02:00;32.13;;;10.80;;
1715;SDS011;855;48.824;9.220;2024-01-07T01:04:27;22.17;;;8.50;;
1715;SDS011;855;48.824;9.220;2024-01-07T01:06:54;23.77;;;8.80;;
1715;SDS011;855;48.824;9.220;2024-01-07T01:09:21;21.50;;;8.27;;
1715;SDS011;855;48.824;9.220;2024-01-07T01:11:48;20.90;;;8.40;;
1715;SDS011;855;48.824;9.220;2024-01-07T01:14:15;25.43;;;9.50;;
1715;SDS011;855;48.824;9.220;2024-01-07T01:16:43;24.30;;;8.47;;
1715;SDS011;855;48.824;9.220;2024-01-07T01:19:10;26.53;;;9.00;;
1715;SDS011;855;48.824;9.220;2024-01-07T01:21:36;30.80;;;10.83;;
1715;SDS011;855;48.824;9.220;2024-01-07T01:24:03;25.13;;;9.87;;
1715;SDS011;855;48.824;9.220;2024-01-07T01:26:30;21.20;;;8.23;;
1715;SDS011;855;48.824;9.220;2024-01-07T01:28:57;21.33;;;8.33;;
1715;SDS011;855;48.824;9.220;2024-01-07T01:31:24;24.47;;;9.50;;
1715;SDS011;855;48.824;9.220;2024-01-07T01:33:52;23.40;;;9.80;;
1715;SDS011;855;48.824;9.220;2024-01-07T01:36:19;27.47;;;10.00;;
1715;SDS011;855;48.824;9.220;2024-01-07T01:38:46;26.23;;;9.10;;
1715;SDS011;855;48.824;9.220;2024-01-07T01:41:13;28.10;;;9.30;;
1715;SDS011;855;48.824;9.220;2024-01-07T01:43:40;30.80;;;9.50;;
1715;SDS011;855;48.824;9.220;2024-01-07T01:46:07;27.13;;;10.23;;
1715;SDS011;855;48.824;9.220;2024-01-07T01:48:34;24.93;;;10.10;;
1715;SDS011;855;48.824;9.220;2024-01-07T01:51:03;30.87;;;10.33;;
1715;SDS011;855;48.824;9.220;2024-01-07T01:53:30;23.70;;;9.43;;
1715;SDS011;855;48.824;9.220;2024-01-07T01:55:59;27.60;;;9.47;;
1715;SDS011;855;48.824;9.220;2024-01-07T01:58:28;25.97;;;9.80;;
1715;SDS011;855;48.824;9.220;2024-01-07T02:00:55;27.33;;;11.63;;
1715;SDS011;855;48.824;9.220;2024-01-07T02:03:22;27.30;;;10.37;;
1715;SDS011;855;48.824;9.220;2024-01-07T02:05:49;26.80;;;10.07;;
1715;SDS011;855;48.824;9.220;2024-01-07T02:08:18;26.47;;;9.60;;
1715;SDS011;855;48.824;9.220;2024-01-07T02:10:45;27.67;;;8.77;;
1715;SDS011;855;48.824;9.220;2024-01-07T02:13:12;26.40;;;11.80;;
1715;SDS011;855;48.824;9.220;2024-01-07T02:15:39;43.57;;;11.43;;
1715;SDS011;855;48.824;9.220;2024-01-07T02:18:05;42.37;;;11.27;;
1715;SDS011;855;48.824;9.220;2024-01-07T02:20:32;32.70;;;11.07;;
1715;SDS011;855;48.824;9.220;2024-01-07T02:23:00;31.00;;;11.63;;
1715;SDS011;855;48.824;9.220;2024-01-07T02:25:29;39.43;;;10.80;;
1715;SDS011;855;48.824;9.220;2024-01-07T02:27:55;37.37;;;13.50;;
1715;SDS011;855;48.824;9.220;2024-01-07T02:30:22;32.27;;;10.97;;
1715;SDS011;855;48.824;9.220;2024-01-07T02:32:49;22.60;;;10.10;;
1715;SDS011;855;48.824;9.220;2024-01-07T02:35:16;29.73;;;11.27;;
1715;SDS011;855;48.824;9.220;2024-01-07T02:37:43;45.47;;;12.80;;
1715;SDS011;855;48.824;9.220;2024-01-07T02:40:10;33.37;;;12.67;;
1715;SDS011;855;48.824;9.220;2024-01-07T02:42:39;36.37;;;12.80;;
1715;SDS011;855;48.824;9.220;2024-01-07T02:45:06;35.30;;;12.53;;
1715;SDS011;855;48.824;9.220;2024-01-07T02:47:33;31.70;;;11.70;;
1715;SDS011;855;48.824;9.220;2024-01-07T02:50:00;45.33;;;14.40;;
1715;SDS011;855;48.824;9.220;2024-01-07T02:52:26;28.60;;;11.67;;
1715;SDS011;855;48.824;9.220;2024-01-07T02:54:53;33.83;;;13.23;;
1715;SDS011;855;48.824;9.220;2024-01-07T02:57:20;42.50;;;12.73;;
1715;SDS011;855;48.824;9.220;2024-01-07T02:59:48;39.03;;;13.20;;
1715;SDS011;855;48.824;9.220;2024-01-07T03:02:15;33.93;;;12.53;;
1715;SDS011;855;48.824;9.220;2024-01-07T03:04:42;26.97;;;10.70;;
1715;SDS011;855;48.824;9.220;2024-01-07T03:07:09;37.43;;;13.20;;
1715;SDS011;855;48.824;9.220;2024-01-07T03:09:36;37.60;;;11.37;;
1715;SDS011;855;48.824;9.220;2024-01-07T03:12:03;46.30;;;12.90;;
1715;SDS011;855;48.824;9.220;2024-01-07T03:14:30;28.67;;;11.93;;
1715;SDS011;855;48.824;9.220;2024-01-07T03:16:58;33.67;;;11.90;;
1715;SDS011;855;48.824;9.220;2024-01-07T03:19:25;35.23;;;12.37;;
1715;SDS011;855;48.824;9.220;2024-01-07T03:21:52;40.60;;;13.47;;
1715;SDS011;855;48.824;9.220;2024-01-07T03:24:19;33.60;;;12.90;;
1715;SDS011;855;48.824;9.220;2024-01-07T03:26:45;46.43;;;12.37;;
1715;SDS011;855;48.824;9.220;2024-01-07T03:29:12;30.30;;;10.97;;
1715;SDS011;855;48.824;9.220;2024-01-07T03:31:39;30.80;;;11.00;;
1715;SDS011;855;48.824;9.220;2024-01-07T03:34:07;30.17;;;12.80;;
1715;SDS011;855;48.824;9.220;2024-01-07T03:36:34;28.80;;;11.53;;
1715;SDS011;855;48.824;9.220;2024-01-07T03:39:01;38.00;;;11.10;;
1715;SDS011;855;48.824;9.220;2024-01-07T03:41:28;28.40;;;10.47;;
1715;SDS011;855;48.824;9.220;2024-01-07T03:43:54;34.27;;;12.10;;
1715;SDS011;855;48.824;9.220;2024-01-07T03:46:21;29.10;;;12.10;;
1715;SDS011;855;48.824;9.220;2024-01-07T03:48:48;28.17;;;10.90;;
1715;SDS011;855;48.824;9.220;2024-01-07T03:51:16;30.93;;;11.37;;
1715;SDS011;855;48.824;9.220;2024-01-07T03:53:43;32.23;;;10.37;;
1715;SDS011;855;48.824;9.220;2024-01-07T03:56:10;25.97;;;9.90;;
1715;SDS011;855;48.824;9.220;2024-01-07T03:58:36;28.83;;;10.30;;
1715;SDS011;855;48.824;9.220;2024-01-07T04:01:03;25.63;;;10.77;;
1715;SDS011;855;48.824;9.220;2024-01-07T04:03:30;27.03;;;10.87;;
1715;SDS011;855;48.824;9.220;2024-01-07T04:05:57;33.37;;;10.50;;
1715;SDS011;855;48.824;9.220;2024-01-07T04:08:25;36.50;;;12.37;;
1715;SDS011;855;48.824;9.220;2024-01-07T04:10:52;30.73;;;11.30;;
1715;SDS011;855;48.824;9.220;2024-01-07T04:13:18;25.73;;;11.80;;
1715;SDS011;855;48.824;9.220;2024-01-07T04:15:45;23.60;;;10.20;;
1715;SDS011;855;48.824;9.220;2024-01-07T04:18:12;29.37;;;10.83;;
1715;SDS011;855;48.824;9.220;2024-01-07T04:20:39;33.97;;;10.27;;
1715;SDS011;855;48.824;9.220;2024-01-07T04:23:06;31.40;;;12.13;;
1715;SDS011;855;48.824;9.220;2024-01-07T04:25:34;28.67;;;11.40;;
1715;SDS011;855;48.824;9.220;2024-01-07T04:28:01;29.10;;;11.50;;
1715;SDS011;855;48.824;9.220;2024-01-07T04:30:27;28.87;;;11.40;;
1715;SDS011;855;48.824;9.220;2024-01-07T04:32:54;35.67;;;12.23;;
1715;SDS011;855;48.824;9.220;2024-01-07T04:35:21;33.90;;;11.47;;
1715;SDS011;855;48.824;9.220;2024-01-07T04:37:48;24.53;;;9.77;;
1715;SDS011;855;48.824;9.220;2024-01-07T04:40:14;25.43;;;10.17;;
1715;SDS011;855;48.824;9.220;2024-01-07T04:42:43;29.50;;;9.40;;
1715;SDS011;855;48.824;9.220;2024-01-07T04:45:10;21.47;;;9.30;;
1715;SDS011;855;48.824;9.220;2024-01-07T04:47:36;22.27;;;9.80;;
1715;SDS011;855;48.824;9.220;2024-01-07T04:50:04;31.67;;;11.47;;
1715;SDS011;855;48.824;9.220;2024-01-07T04:52:31;29.93;;;9.60;;
1715;SDS011;855;48.824;9.220;2024-01-07T04:54:58;26.63;;;9.07;;
1715;SDS011;855;48.824;9.220;2024-01-07T04:57:25;31.40;;;10.63;;
1715;SDS011;855;48.824;9.220;2024-01-07T04:59:53;33.97;;;11.50;;
1715;SDS011;855;48.824;9.220;2024-01-07T05:02:20;25.63;;;8.57;;
1715;SDS011;855;48.824;9.220;2024-01-07T05:04:47;19.70;;;9.50;;
1715;SDS011;855;48.824;9.220;2024-01-07T05:07:14;25.43;;;8.60;;
1715;SDS011;855;48.824;9.220;2024-01-07T05:09:41;20.20;;;8.13;;
1715;SDS011;855;48.824;9.220;2024-01-07T05:12:08;24.80;;;9.10;;
1715;SDS011;855;48.824;9.220;2024-01-07T05:14:34;28.07;;;8.40;;
1715;SDS011;855;48.824;9.220;2024-01-07T05:17:03;21.70;;;9.37;;
1715;SDS011;855;48.824;9.220;2024-01-07T05:19:30;26.53;;;9.97;;
1715;SDS011;855;48.824;9.220;2024-01-07T05:21:58;23.23;;;8.63;;
1715;SDS011;855;48.824;9.220;2024-01-07T05:24:25;29.70;;;8.33;;
1715;SDS011;855;48.824;9.220;2024-01-07T05:26:52;21.50;;;7.97;;
1715;SDS011;855;48.824;9.220;2024-01-07T05:29:19;25.00;;;8.23;;
1715;SDS011;855;48.824;9.220;2024-01-07T05:31:46;23.67;;;8.87;;
1715;SDS011;855;48.824;9.220;2024-01-07T05:34:14;20.13;;;7.73;;
1715;SDS011;855;48.824;9.220;2024-01-07T05:36:41;15.73;;;7.43;;
1715;SDS011;855;48.824;9.220;2024-01-07T05:39:08;22.63;;;8.03;;
1715;SDS011;855;48.824;9.220;2024-01-07T05:41:36;25.63;;;9.00;;
1715;SDS011;855;48.824;9.220;2024-01-07T05:44:05;24.40;;;9.02;;
1715;SDS011;855;48.824;9.220;2024-01-07T05:46:33;17.63;;;7.53;;
1715;SDS011;855;48.824;9.220;2024-01-07T05:48:59;28.27;;;8.10;;
1715;SDS011;855;48.824;9.220;2024-01-07T05:51:27;20.10;;;7.40;;
1715;SDS011;855;48.824;9.220;2024-01-07T05:53:54;27.37;;;8.33;;
1715;SDS011;855;48.824;9.220;2024-01-07T05:56:21;22.60;;;8.30;;
1715;SDS011;855;48.824;9.220;2024-01-07T05:58:48;26.13;;;8.70;;
1715;SDS011;855;48.824;9.220;2024-01-07T06:01:18;20.23;;;7.90;;
1715;SDS011;855;48.824;9.220;2024-01-07T06:03:45;18.90;;;7.83;;
1715;SDS011;855;48.824;9.220;2024-01-07T06:06:12;19.37;;;8.30;;
1715;SDS011;855;48.824;9.220;2024-01-07T06:08:40;19.77;;;8.13;;
1715;SDS011;855;48.824;9.220;2024-01-07T06:11:07;21.20;;;7.20;;
1715;SDS011;855;48.824;9.220;2024-01-07T06:13:35;30.83;;;8.50;;
1715;SDS011;855;48.824;9.220;2024-01-07T06:16:02;20.20;;;8.20;;
1715;SDS011;855;48.824;9.220;2024-01-07T06:18:30;21.87;;;8.20;;
1715;SDS011;855;48.824;9.220;2024-01-07T06:20:56;21.23;;;8.60;;
1715;SDS011;855;48.824;9.220;2024-01-07T06:23:23;16.73;;;7.00;;
1715;SDS011;855;48.824;9.220;2024-01-07T06:25:51;19.80;;;8.93;;
1715;SDS011;855;48.824;9.220;2024-01-07T06:28:18;18.60;;;7.50;;
1715;SDS011;855;48.824;9.220;2024-01-07T06:30:45;22.27;;;8.20;;
1715;SDS011;855;48.824;9.220;2024-01-07T06:33:12;17.17;;;7.93;;
1715;SDS011;855;48.824;9.220;2024-01-07T06:35:40;22.70;;;9.27;;
1715;SDS011;855;48.824;9.220;2024-01-07T06:38:07;16.80;;;7.63;;
1715;SDS011;855;48.824;9.220;2024-01-07T06:40:33;25.80;;;8.60;;
1715;SDS011;855;48.824;9.220;2024-01-07T06:43:01;21.27;;;9.17;;
1715;SDS011;855;48.824;9.220;2024-01-07T06:45:28;19.73;;;9.00;;
1715;SDS011;855;48.824;9.220;2024-01-07T06:47:55;17.53;;;6.87;;
1715;SDS011;855;48.824;9.220;2024-01-07T06:50:23;20.00;;;8.70;;
1715;SDS011;855;48.824;9.220;2024-01-07T06:52:49;22.00;;;8.50;;
1715;SDS011;855;48.824;9.220;2024-01-07T06:55:16;27.10;;;8.60;;
1715;SDS011;855;48.824;9.220;2024-01-07T06:57:43;24.57;;;7.97;;
1715;SDS011;855;48.824;9.220;2024-01-07T07:00:12;16.63;;;7.97;;
1715;SDS011;855;48.824;9.220;2024-01-07T07:02:40;16.60;;;8.30;;
1715;SDS011;855;48.824;9.220;2024-01-07T07:05:07;18.87;;;7.73;;
1715;SDS011;855;48.824;9.220;2024-01-07T07:07:34;18.63;;;8.40;;
1715;SDS011;855;48.824;9.220;2024-01-07T07:10:01;21.17;;;8.40;;
1715;SDS011;855;48.824;9.220;2024-01-07T07:12:28;11.67;;;7.00;;
1715;SDS011;855;48.824;9.220;2024-01-07T07:14:55;14.70;;;6.37;;
1715;SDS011;855;48.824;9.220;2024-01-07T07:17:24;15.50;;;6.30;;
1715;SDS011;855;48.824;9.220;2024-01-07T07:19:50;21.80;;;7.17;;
1715;SDS011;855;48.824;9.220;2024-01-07T07:22:17;15.87;;;7.13;;
1715;SDS011;855;48.824;9.220;2024-01-07T07:24:44;12.87;;;6.67;;
1715;SDS011;855;48.824;9.220;2024-01-07T07:27:11;12.70;;;6.10;;
1715;SDS011;855;48.824;9.220;2024-01-07T07:29:38;12.43;;;6.13;;
1715;SDS011;855;48.824;9.220;2024-01-07T07:32:05;11.13;;;6.10;;
1715;SDS011;855;48.824;9.220;2024-01-07T07:34:33;12.53;;;6.40;;
1715;SDS011;855;48.824;9.220;2024-01-07T07:37:00;13.47;;;4.90;;
1715;SDS011;855;48.824;9.220;2024-01-07T07:39:27;14.57;;;6.03;;
1715;SDS011;855;48.824;9.220;2024-01-07T07:41:54;13.43;;;6.07;;
1715;SDS011;855;48.824;9.220;2024-01-07T07:44:20;10.77;;;5.97;;
1715;SDS011;855;48.824;9.220;2024-01-07T07:46:47;13.20;;;6.30;;
1715;SDS011;855;48.824;9.220;2024-01-07T07:49:15;8.73;;;5.10;;
1715;SDS011;855;48.824;9.220;2024-01-07T07:51:44;11.90;;;6.20;;
1715;SDS011;855;48.824;9.220;2024-01-07T07:54:11;16.93;;;6.03;;
1715;SDS011;855;48.824;9.220;2024-01-07T07:56:37;12.53;;;6.47;;
1715;SDS011;855;48.824;9.220;2024-01-07T07:59:04;9.53;;;5.23;;
1715;SDS011;855;48.824;9.220;2024-01-07T08:01:31;13.90;;;6.33;;
1715;SDS011;855;48.824;9.220;2024-01-07T08:03:58;14.27;;;5.63;;
1715;SDS011;855;48.824;9.220;2024-01-07T08:06:27;9.93;;;4.80;;
1715;SDS011;855;48.824;9.220;2024-01-07T08:08:55;11.67;;;6.33;;
1715;SDS011;855;48.824;9.220;2024-01-07T08:11:22;11.43;;;5.20;;
1715;SDS011;855;48.824;9.220;2024-01-07T08:13:49;18.50;;;5.80;;
1715;SDS011;855;48.824;9.220;2024-01-07T08:16:16;14.30;;;6.47;;
1715;SDS011;855;48.824;9.220;2024-01-07T08:18:43;13.57;;;5.90;;
1715;SDS011;855;48.824;9.220;2024-01-07T08:21:10;9.97;;;4.90;;
1715;SDS011;855;48.824;9.220;2024-01-07T08:23:37;12.23;;;5.47;;
1715;SDS011;855;48.824;9.220;2024-01-07T08:26:05;14.07;;;5.10;;
1715;SDS011;855;48.824;9.220;2024-01-07T08:28:32;10.10;;;6.07;;
1715;SDS011;855;48.824;9.220;2024-01-07T08:30:59;11.63;;;5.93;;
1715;SDS011;855;48.824;9.220;2024-01-07T08:33:26;12.83;;;5.60;;
1715;SDS011;855;48.824;9.220;2024-01-07T08:35:53;13.17;;;5.70;;
1715;SDS011;855;48.824;9.220;2024-01-07T08:38:20;12.87;;;6.60;;
1715;SDS011;855;48.824;9.220;2024-01-07T08:40:47;18.23;;;6.90;;
1715;SDS011;855;48.824;9.220;2024-01-07T08:43:15;10.83;;;6.30;;
1715;SDS011;855;48.824;9.220;2024-01-07T08:45:42;13.80;;;5.73;;
1715;SDS011;855;48.824;9.220;2024-01-07T08:48:09;10.93;;;5.40;;
1715;SDS011;855;48.824;9.220;2024-01-07T08:50:37;16.40;;;4.47;;
1715;SDS011;855;48.824;9.220;2024-01-07T08:53:04;13.20;;;5.40;;
1715;SDS011;855;48.824;9.220;2024-01-07T08:55:31;9.30;;;5.27;;
1715;SDS011;855;48.824;9.220;2024-01-07T08:57:58;9.87;;;5.00;;
1715;SDS011;855;48.824;9.220;2024-01-07T09:00:27;7.07;;;4.13;;
1715;SDS011;855;48.824;9.220;2024-01-07T09:02:56;10.50;;;4.00;;
1715;SDS011;855;48.824;9.220;2024-01-07T09:05:23;7.77;;;4.13;;
1715;SDS011;855;48.824;9.220;2024-01-07T09:07:50;7.33;;;3.57;;
1715;SDS011;855;48.824;9.220;2024-01-07T09:10:17;6.80;;;3.30;;
1715;SDS011;855;48.824;9.220;2024-01-07T09:12:44;8.60;;;3.60;;
1715;SDS011;855;48.824;9.220;2024-01-07T09:15:11;9.80;;;3.10;;
1715;SDS011;855;48.824;9.220;2024-01-07T09:17:39;4.77;;;2.33;;
1715;SDS011;855;48.824;9.220;2024-01-07T09:20:07;7.90;;;3.80;;
1715;SDS011;855;48.824;9.220;2024-01-07T09:22:34;5.60;;;3.40;;
1715;SDS011;855;48.824;9.220;2024-01-07T09:25:02;6.13;;;3.17;;
1715;SDS011;855;48.824;9.220;2024-01-07T09:27:29;5.40;;;2.50;;
1715;SDS011;855;48.824;9.220;2024-01-07T09:29:56;16.33;;;3.53;;
1715;SDS011;855;48.824;9.220;2024-01-07T09:32:23;6.37;;;3.30;;
1715;SDS011;855;48.824;9.220;2024-01-07T09:34:51;6.83;;;3.53;;
1715;SDS011;855;48.824;9.220;2024-01-07T09:37:20;6.97;;;3.57;;
1715;SDS011;855;48.824;9.220;2024-01-07T09:39:46;10.43;;;4.40;;
1715;SDS011;855;48.824;9.220;2024-01-07T09:42:15;4.77;;;2.97;;
1715;SDS011;855;48.824;9.220;2024-01-07T09:44:43;6.40;;;2.70;;
1715;SDS011;855;48.824;9.220;2024-01-07T09:47:11;9.37;;;4.50;;
1715;SDS011;855;48.824;9.220;2024-01-07T09:49:39;6.07;;;3.00;;
1715;SDS011;855;48.824;9.220;2024-01-07T09:52:09;5.07;;;3.23;;
1715;SDS011;855;48.824;9.220;2024-01-07T09:54:37;6.30;;;3.63;;
1715;SDS011;855;48.824;9.220;2024-01-07T09:57:04;5.83;;;3.07;;
1715;SDS011;855;48.824;9.220;2024-01-07T09:59:32;10.13;;;4.53;;
1715;SDS011;855;48.824;9.220;2024-01-07T10:02:00;10.50;;;4.80;;
1715;SDS011;855;48.824;9.220;2024-01-07T10:04:27;7.57;;;4.63;;
1715;SDS011;855;48.824;9.220;2024-01-07T10:06:54;11.03;;;4.20;;
1715;SDS011;855;48.824;9.220;2024-01-07T10:09:23;8.40;;;3.70;;
1715;SDS011;855;48.824;9.220;2024-01-07T10:11:51;8.80;;;4.20;;
1715;SDS011;855;48.824;9.220;2024-01-07T10:14:18;8.30;;;3.50;;
1715;SDS011;855;48.824;9.220;2024-01-07T10:16:47;10.10;;;4.47;;
1715;SDS011;855;48.824;9.220;2024-01-07T10:19:17;7.73;;;3.93;;
1715;SDS011;855;48.824;9.220;2024-01-07T10:21:49;6.93;;;3.80;;
1715;SDS011;855;48.824;9.220;2024-01-07T10:24:27;10.13;;;4.53;;
1715;SDS011;855;48.824;9.220;2024-01-07T10:27:03;10.77;;;5.13;;
1715;SDS011;855;48.824;9.220;2024-01-07T10:29:30;11.90;;;4.17;;
1715;SDS011;855;48.824;9.220;2024-01-07T10:31:57;9.43;;;4.60;;
1715;SDS011;855;48.824;9.220;2024-01-07T10:34:27;8.00;;;4.50;;
1715;SDS011;855;48.824;9.220;2024-01-07T10:36:56;13.70;;;4.53;;
1715;SDS011;855;48.824;9.220;2024-01-07T10:39:26;8.37;;;3.77;;
1715;SDS011;855;48.824;9.220;2024-01-07T10:41:54;8.07;;;4.17;;
1715;SDS011;855;48.824;9.220;2024-01-07T10:44:24;11.70;;;4.70;;
1715;SDS011;855;48.824;9.220;2024-01-07T10:46:58;8.07;;;4.80;;
1715;SDS011;855;48.824;9.220;2024-01-07T10:49:26;11.60;;;4.43;;
1715;SDS011;855;48.824;9.220;2024-01-07T10:51:56;10.10;;;4.80;;
1715;SDS011;855;48.824;9.220;2024-01-07T10:54:31;8.97;;;4.80;;
1715;SDS011;855;48.824;9.220;2024-01-07T10:56:59;8.40;;;4.37;;
1715;SDS011;855;48.824;9.220;2024-01-07T10:59:31;11.77;;;5.63;;
1715;SDS011;855;48.824;9.220;2024-01-07T11:01:59;13.87;;;6.10;;
1715;SDS011;855;48.824;9.220;2024-01-07T11:04:29;9.17;;;4.97;;
1715;SDS011;855;48.824;9.220;2024-01-07T11:07:01;8.30;;;4.60;;
1715;SDS011;855;48.824;9.220;2024-01-07T11:09:37;6.27;;;3.97;;
1715;SDS011;855;48.824;9.220;2024-01-07T11:12:09;9.67;;;4.20;;
1715;SDS011;855;48.824;9.220;2024-01-07T11:14:38;9.03;;;4.90;;
1715;SDS011;855;48.824;9.220;2024-01-07T11:17:05;8.90;;;4.50;;
1715;SDS011;855;48.824;9.220;2024-01-07T11:19:33;8.33;;;4.83;;
1715;SDS011;855;48.824;9.220;2024-01-07T11:24:51;9.37;;;4.93;;
1715;SDS011;855;48.824;9.220;2024-01-07T11:27:18;7.07;;;3.80;;
1715;SDS011;855;48.824;9.220;2024-01-07T11:29:52;11.30;;;5.30;;
1715;SDS011;855;48.824;9.220;2024-01-07T11:32:21;13.27;;;4.70;;
1715;SDS011;855;48.824;9.220;2024-01-07T11:34:50;10.23;;;4.97;;
1715;SDS011;855;48.824;9.220;2024-01-07T11:37:18;9.37;;;4.87;;
1715;SDS011;855;48.824;9.220;2024-01-07T11:39:46;10.70;;;4.33;;
1715;SDS011;855;48.824;9.220;2024-01-07T11:42:15;9.67;;;4.83;;
1715;SDS011;855;48.824;9.220;2024-01-07T11:44:45;10.00;;;4.80;;
1715;SDS011;855;48.824;9.220;2024-01-07T11:47:13;9.00;;;4.73;;
1715;SDS011;855;48.824;9.220;2024-01-07T11:49:40;10.23;;;4.60;;
1715;SDS011;855;48.824;9.220;2024-01-07T11:52:08;8.37;;;4.10;;
1715;SDS011;855;48.824;9.220;2024-01-07T11:54:35;11.90;;;4.63;;
1715;SDS011;855;48.824;9.220;2024-01-07T11:57:03;12.00;;;4.90;;
1715;SDS011;855;48.824;9.220;2024-01-07T11:59:31;10.93;;;4.80;;
1715;SDS011;855;48.824;9.220;2024-01-07T12:01:59;7.60;;;4.07;;
1715;SDS011;855;48.824;9.220;2024-01-07T12:04:26;14.93;;;5.00;;
1715;SDS011;855;48.824;9.220;2024-01-07T12:06:53;14.23;;;5.70;;
1715;SDS011;855;48.824;9.220;2024-01-07T12:09:20;12.70;;;5.37;;
1715;SDS011;855;48.824;9.220;2024-01-07T12:11:47;9.80;;;5.20;;
1715;SDS011;855;48.824;9.220;2024-01-07T12:14:14;17.50;;;5.37;;
1715;SDS011;855;48.824;9.220;2024-01-07T12:16:42;10.57;;;4.77;;
1715;SDS011;855;48.824;9.220;2024-01-07T12:19:09;7.83;;;4.87;;
1715;SDS011;855;48.824;9.220;2024-01-07T12:21:36;12.43;;;6.03;;
1715;SDS011;855;48.824;9.220;2024-01-07T12:24:05;10.23;;;5.97;;
1715;SDS011;855;48.824;9.220;2024-01-07T12:26:32;12.93;;;5.70;;
1715;SDS011;855;48.824;9.220;2024-01-07T12:28:59;11.93;;;5.40;;
1715;SDS011;855;48.824;9.220;2024-01-07T12:31:29;16.17;;;6.23;;
1715;SDS011;855;48.824;9.220;2024-01-07T12:33:58;23.17;;;6.50;;
1715;SDS011;855;48.824;9.220;2024-01-07T12:36:25;11.63;;;5.40;;
1715;SDS011;855;48.824;9.220;2024-01-07T12:38:52;16.30;;;6.87;;
1715;SDS011;855;48.824;9.220;2024-01-07T12:41:20;13.87;;;7.07;;
1715;SDS011;855;48.824;9.220;2024-01-07T12:43:47;9.13;;;5.17;;
1715;SDS011;855;48.824;9.220;2024-01-07T12:46:14;8.93;;;4.97;;
1715;SDS011;855;48.824;9.220;2024-01-07T12:48:40;12.83;;;6.40;;
1715;SDS011;855;48.824;9.220;2024-01-07T12:51:09;12.47;;;5.73;;
1715;SDS011;855;48.824;9.220;2024-01-07T12:53:36;11.83;;;6.03;;
1715;SDS011;855;48.824;9.220;2024-01-07T12:56:03;14.57;;;6.63;;
1715;SDS011;855;48.824;9.220;2024-01-07T12:58:30;17.23;;;7.70;;
1715;SDS011;855;48.824;9.220;2024-01-07T13:00:57;13.27;;;6.53;;
1715;SDS011;855;48.824;9.220;2024-01-07T13:03:24;13.93;;;5.43;;
1715;SDS011;855;48.824;9.220;2024-01-07T13:05:50;12.87;;;6.13;;
1715;SDS011;855;48.824;9.220;2024-01-07T13:08:19;13.07;;;6.60;;
1715;SDS011;855;48.824;9.220;2024-01-07T13:10:47;13.90;;;5.93;;
1715;SDS011;855;48.824;9.220;2024-01-07T13:13:14;12.43;;;6.30;;
1715;SDS011;855;48.824;9.220;2024-01-07T13:15:42;10.83;;;6.00;;
1715;SDS011;855;48.824;9.220;2024-01-07T13:18:10;9.83;;;5.40;;
1715;SDS011;855;48.824;9.220;2024-01-07T13:20:38;19.27;;;7.97;;
1715;SDS011;855;48.824;9.220;2024-01-07T13:23:05;14.53;;;6.80;;
1715;SDS011;855;48.824;9.220;2024-01-07T13:25:34;15.57;;;7.00;;
1715;SDS011;855;48.824;9.220;2024-01-07T13:28:00;18.30;;;7.30;;
1715;SDS011;855;48.824;9.220;2024-01-07T13:30:27;16.53;;;6.73;;
1715;SDS011;855;48.824;9.220;2024-01-07T13:32:54;15.53;;;8.10;;
1715;SDS011;855;48.824;9.220;2024-01-07T13:35:22;14.20;;;7.30;;
1715;SDS011;855;48.824;9.220;2024-01-07T13:37:49;12.37;;;7.10;;
1715;SDS011;855;48.824;9.220;2024-01-07T13:40:17;12.73;;;5.90;;
1715;SDS011;855;48.824;9.220;2024-01-07T13:42:45;16.97;;;6.90;;
1715;SDS011;855;48.824;9.220;2024-01-07T13:45:16;14.43;;;6.13;;
1715;SDS011;855;48.824;9.220;2024-01-07T13:47:45;14.80;;;6.53;;
1715;SDS011;855;48.824;9.220;2024-01-07T13:50:12;14.23;;;6.67;;
1715;SDS011;855;48.824;9.220;2024-01-07T13:52:38;12.57;;;6.30;;
1715;SDS011;855;48.824;9.220;2024-01-07T13:55:06;16.47;;;7.83;;
1715;SDS011;855;48.824;9.220;2024-01-07T13:57:34;17.57;;;7.47;;
1715;SDS011;855;48.824;9.220;2024-01-07T14:00:03;15.47;;;6.83;;
1715;SDS011;855;48.824;9.220;2024-01-07T14:02:33;16.00;;;7.80;;
1715;SDS011;855;48.824;9.220;2024-01-07T14:05:00;13.30;;;7.17;;
1715;SDS011;855;48.824;9.220;2024-01-07T14:07:26;26.20;;;7.67;;
1715;SDS011;855;48.824;9.220;2024-01-07T14:09:53;22.50;;;8.93;;
1715;SDS011;855;48.824;9.220;2024-01-07T14:12:21;16.63;;;8.63;;
1715;SDS011;855;48.824;9.220;2024-01-07T14:14:48;21.90;;;8.07;;
1715;SDS011;855;48.824;9.220;2024-01-07T14:17:16;16.40;;;7.30;;
1715;SDS011;855;48.824;9.220;2024-01-07T14:19:43;19.80;;;8.43;;
1715;SDS011;855;48.824;9.220;2024-01-07T14:22:11;21.07;;;8.20;;
1715;SDS011;855;48.824;9.220;2024-01-07T14:24:39;24.90;;;9.00;;
1715;SDS011;855;48.824;9.220;2024-01-07T14:27:05;21.07;;;9.67;;
1715;SDS011;855;48.824;9.220;2024-01-07T14:29:32;22.87;;;9.00;;
1715;SDS011;855;48.824;9.220;2024-01-07T14:31:59;23.80;;;8.40;;
1715;SDS011;855;48.824;9.220;2024-01-07T14:34:28;18.23;;;8.23;;
1715;SDS011;855;48.824;9.220;2024-01-07T14:36:55;20.70;;;8.20;;
1715;SDS011;855;48.824;9.220;2024-01-07T14:39:22;17.83;;;8.80;;
1715;SDS011;855;48.824;9.220;2024-01-07T14:41:49;14.93;;;7.63;;
1715;SDS011;855;48.824;9.220;2024-01-07T14:44:16;18.70;;;8.10;;
1715;SDS011;855;48.824;9.220;2024-01-07T14:46:43;26.27;;;9.07;;
1715;SDS011;855;48.824;9.220;2024-01-07T14:49:10;18.57;;;7.80;;
1715;SDS011;855;48.824;9.220;2024-01-07T14:51:38;19.70;;;8.47;;
1715;SDS011;855;48.824;9.220;2024-01-07T14:54:05;14.23;;;7.87;;
1715;SDS011;855;48.824;9.220;2024-01-07T14:56:32;25.40;;;8.43;;
1715;SDS011;855;48.824;9.220;2024-01-07T14:58:58;13.80;;;6.57;;
1715;SDS011;855;48.824;9.220;2024-01-07T15:01:25;16.53;;;8.50;;
1715;SDS011;855;48.824;9.220;2024-01-07T15:03:52;17.30;;;7.40;;
1715;SDS011;855;48.824;9.220;2024-01-07T15:06:19;18.07;;;8.17;;
1715;SDS011;855;48.824;9.220;2024-01-07T15:08:47;18.10;;;8.17;;
1715;SDS011;855;48.824;9.220;2024-01-07T15:11:15;22.60;;;8.03;;
1715;SDS011;855;48.824;9.220;2024-01-07T15:13:42;15.53;;;7.10;;
1715;SDS011;855;48.824;9.220;2024-01-07T15:16:09;23.67;;;7.60;;
1715;SDS011;855;48.824;9.220;2024-01-07T15:18:36;13.57;;;6.40;;